KGFA/GFA METAR and TAF weather

Enter ICAO airport designator
Station Type Date Time Source
KGFA METAR 2019/10/23 01:58 UTC NOAA

KGFA 230158Z AUTO 26012KT 10SM OVC090 08/M01 A2991 RMK AO2 SLP145 T00751008 $


Station Type Date Time Source
KGFA Decoded METAR 2019/10/23 01:58 UTC NOAA

Malmstrom Air Force Base, MT, United States (KGFA) 47-30N 111-11W
Oct 22, 2019 - 09:58 PM EDT / 2019.10.23 0158 UTC
Wind: from the W (260 degrees) at 14 MPH (12 KT):0
Visibility: 10 mile(s):0
Sky conditions: overcast
Temperature: 45.5 F (7.5 C)
Dew Point: 30.6 F (-0.8 C)
Relative Humidity: 55%
Pressure (altimeter): 29.91 in. Hg (1012 hPa)
ob: KGFA 230158Z AUTO 26012KT 10SM OVC090 08/M01 A2991 RMK AO2 SLP145 T00751008
cycle: 2

Station Type Date Time Source
KGFA TAF 2019/10/22 23:33 UTC NOAA

TAF
AMD KGFA 222330Z 2223/2401 25015G25KT 9999 BKN020 530009 QNH2978INS
TEMPO 2223/2302 27025G35KT
BECMG 2305/2306 30012G18KT 9000 -RA BKN030 QNH3002INS
TEMPO 2306/2312 8000 -RASN BKN015 630159
BECMG 2317/2318 30012G18KT 9999 NSW SCT020 BKN050 QNH3032INS
TEMPO 2318/2322 9000 -RASN SCT010 BKN020 630209
BECMG 2322/2323 24009KT 9999 SCT050 QNH3036INS TX09/2223Z TN01/2312Z

Example: see airport list